Time;durP1;ratioP1;P1;durP2;ratioP2;P2;SDS_P1;SDS_P2;PMS_P1;PMS_P2;Temp;Humidity;BMP_temperature;BMP_pressure;BME280_temperature;BME280_humidity;BME280_pressure;Samples;Min_cycle;Max_cycle;Signal;HPM_P1;HPM_P2
2022/10/02 00:02:02;;;;;;;0.00;0.00;;;13.70;99.90;;;;;;5050199;28;20593;-64
2022/10/02 00:04:53;;;;;;;0.00;0.00;;;13.70;99.90;;;;;;5031697;28;20241;-65
2022/10/02 00:07:25;;;;;;;0.00;0.00;;;13.70;99.90;;;;;;5026897;28;20619;-65
2022/10/02 00:10:07;;;;;;;0.00;0.00;;;13.60;99.90;;;;;;5040585;28;20201;-65
2022/10/02 00:12:34;;;;;;;0.00;0.00;;;13.60;99.90;;;;;;5014439;28;20194;-66
2022/10/02 00:15:12;;;;;;;0.00;0.00;;;13.60;99.90;;;;;;5042249;28;20233;-65
2022/10/02 00:17:42;;;;;;;0.00;0.00;;;13.50;99.90;;;;;;5031475;28;20533;-65
2022/10/02 00:20:13;;;;;;;0.00;0.00;;;13.50;99.90;;;;;;5031381;28;20261;-64
2022/10/02 00:22:54;;;;;;;0.00;0.00;;;13.60;99.90;;;;;;5037015;28;20231;-65
2022/10/02 00:25:20;;;;;;;0.00;0.00;;;13.60;99.90;;;;;;5035099;28;20185;-65
2022/10/02 00:28:11;;;;;;;0.00;0.00;;;13.50;99.90;;;;;;5049420;28;20538;-64
2022/10/02 00:30:46;;;;;;;0.00;0.00;;;13.50;99.90;;;;;;5051219;28;20197;-65
2022/10/02 00:33:23;;;;;;;0.03;0.03;;;13.60;99.90;;;;;;5036593;28;20605;-64
2022/10/02 00:36:11;;;;;;;0.00;0.00;;;13.50;99.90;;;;;;5041799;28;20218;-65
2022/10/02 00:39:15;;;;;;;0.00;0.00;;;13.50;99.90;;;;;;5033520;28;20225;-65
2022/10/02 00:42:13;;;;;;;0.00;0.00;;;13.50;99.90;;;;;;5051709;28;20177;-65
2022/10/02 00:44:54;;;;;;;0.00;0.00;;;13.50;99.90;;;;;;5040558;28;20672;-65
2022/10/02 00:47:43;;;;;;;0.00;0.00;;;13.50;99.90;;;;;;5050860;28;20189;-65
2022/10/02 00:50:16;;;;;;;0.10;0.10;;;13.50;99.90;;;;;;5040846;28;20177;-65
2022/10/02 00:53:01;;;;;;;0.05;0.05;;;13.50;99.90;;;;;;5038831;28;20185;-65
2022/10/02 00:55:55;;;;;;;0.00;0.00;;;13.50;99.90;;;;;;5034388;28;20263;-65
2022/10/02 00:58:43;;;;;;;0.00;0.00;;;13.50;99.90;;;;;;5036867;28;20209;-66
2022/10/02 01:01:14;;;;;;;0.00;0.00;;;13.50;99.90;;;;;;5039924;28;20183;-65
2022/10/02 01:03:43;;;;;;;0.05;0.05;;;13.40;99.90;;;;;;5048408;28;20220;-65
2022/10/02 01:06:09;;;;;;;0.00;0.00;;;13.40;99.90;;;;;;5043506;28;20188;-65
2022/10/02 01:08:35;;;;;;;0.00;0.00;;;13.40;99.90;;;;;;5035191;28;20188;-66
2022/10/02 01:11:02;;;;;;;0.05;0.05;;;13.40;99.90;;;;;;5037179;28;20599;-66
2022/10/02 01:13:29;;;;;;;0.00;0.00;;;13.40;99.90;;;;;;5036135;28;20967;-66
2022/10/02 01:15:58;;;;;;;0.00;0.00;;;13.50;99.90;;;;;;5048648;28;20221;-65
2022/10/02 01:18:24;;;;;;;0.00;0.00;;;13.40;99.90;;;;;;5045902;28;20206;-65
2022/10/02 01:20:51;;;;;;;0.00;0.00;;;13.40;99.90;;;;;;5052031;28;20205;-65
2022/10/02 01:24:04;;;;;;;0.00;0.00;;;13.40;99.90;;;;;;5049877;28;20586;-65
2022/10/02 01:26:30;;;;;;;0.00;0.00;;;13.40;99.90;;;;;;4982107;28;20277;-65
2022/10/02 01:28:56;;;;;;;0.00;0.00;;;13.30;99.90;;;;;;5029813;28;20198;-65
2022/10/02 01:31:23;;;;;;;0.00;0.00;;;13.30;99.90;;;;;;5046009;28;20224;-65
2022/10/02 01:33:50;;;;;;;0.10;0.10;;;13.30;99.90;;;;;;5051562;28;20184;-65
2022/10/02 01:36:16;;;;;;;0.17;0.10;;;13.30;99.90;;;;;;5049025;28;20222;-65
2022/10/02 01:38:43;;;;;;;0.00;0.00;;;13.30;99.90;;;;;;5035418;28;20182;-66
2022/10/02 01:41:11;;;;;;;0.00;0.00;;;13.20;99.90;;;;;;5037327;28;20192;-65
2022/10/02 01:43:41;;;;;;;0.00;0.00;;;13.20;99.90;;;;;;5035369;28;20540;-66
2022/10/02 01:46:22;;;;;;;0.00;0.00;;;13.20;99.90;;;;;;5050813;28;20182;-65
2022/10/02 01:48:59;;;;;;;0.10;0.10;;;13.20;99.90;;;;;;5040074;28;20183;-66
2022/10/02 01:51:40;;;;;;;0.00;0.00;;;13.20;99.90;;;;;;5029447;28;20181;-66
2022/10/02 01:54:31;;;;;;;0.00;0.00;;;13.20;99.90;;;;;;5045476;28;20236;-65
2022/10/02 01:57:15;;;;;;;0.00;0.00;;;13.20;99.90;;;;;;5052361;28;20554;-65
2022/10/02 02:00:00;;;;;;;0.00;0.00;;;13.30;99.90;;;;;;5041919;28;20174;-66
2022/10/02 02:02:38;;;;;;;0.00;0.00;;;13.20;99.90;;;;;;5049843;28;20244;-65
2022/10/02 02:05:24;;;;;;;0.00;0.00;;;13.30;99.90;;;;;;5034171;28;20186;-66
2022/10/02 02:08:04;;;;;;;0.00;0.00;;;13.30;99.90;;;;;;5046257;28;20181;-65
2022/10/02 02:10:39;;;;;;;0.00;0.00;;;13.30;99.90;;;;;;5044484;28;20190;-66
2022/10/02 02:13:13;;;;;;;0.00;0.00;;;13.30;99.90;;;;;;5037636;28;20296;-65
2022/10/02 02:15:48;;;;;;;0.00;0.00;;;13.40;99.90;;;;;;5039958;28;20213;-66
2022/10/02 02:18:28;;;;;;;0.00;0.00;;;13.30;99.90;;;;;;5049776;28;20177;-65
2022/10/02 02:21:00;;;;;;;0.00;0.00;;;13.40;99.90;;;;;;5025946;28;20653;-66
2022/10/02 02:23:31;;;;;;;0.00;0.00;;;13.30;99.90;;;;;;5035402;28;20197;-66
2022/10/02 02:26:01;;;;;;;0.00;0.00;;;13.40;99.90;;;;;;5036552;28;20186;-66
2022/10/02 02:28:30;;;;;;;0.00;0.00;;;13.40;99.90;;;;;;5037457;28;20217;-66
2022/10/02 02:30:58;;;;;;;0.00;0.00;;;13.40;99.90;;;;;;5034627;28;20178;-66
2022/10/02 02:33:39;;;;;;;0.00;0.00;;;13.40;99.90;;;;;;5042400;28;20186;-66
2022/10/02 02:36:12;;;;;;;0.22;0.08;;;13.40;99.90;;;;;;5045602;28;20217;-66
2022/10/02 02:38:46;;;;;;;0.00;0.00;;;13.40;99.90;;;;;;5046593;28;20186;-66
2022/10/02 02:41:18;;;;;;;0.00;0.00;;;13.40;99.90;;;;;;5038034;28;20731;-65
2022/10/02 02:44:05;;;;;;;0.00;0.00;;;13.50;99.90;;;;;;5036886;28;20277;-65
2022/10/02 02:47:03;;;;;;;0.03;0.03;;;13.40;99.90;;;;;;5033274;28;20228;-65
2022/10/02 02:49:43;;;;;;;0.00;0.00;;;13.50;99.90;;;;;;5042051;28;20181;-65
2022/10/02 02:52:14;;;;;;;0.03;0.03;;;13.50;99.90;;;;;;5043299;28;20260;-65
2022/10/02 02:54:44;;;;;;;0.60;0.25;;;13.50;99.90;;;;;;5041896;28;20558;-65
2022/10/02 02:57:11;;;;;;;0.10;0.10;;;13.50;99.90;;;;;;5041321;28;20210;-65
2022/10/02 02:59:39;;;;;;;0.00;0.00;;;13.50;99.90;;;;;;5033153;28;20574;-65
2022/10/02 03:02:05;;;;;;;0.00;0.00;;;13.50;99.90;;;;;;5033145;28;20652;-65
2022/10/02 03:04:30;;;;;;;0.22;0.22;;;13.50;99.90;;;;;;5033824;28;20226;-65
2022/10/02 03:07:00;;;;;;;0.00;0.00;;;13.50;99.90;;;;;;5044549;28;20182;-65
2022/10/02 03:09:28;;;;;;;0.00;0.00;;;13.50;99.90;;;;;;5050643;28;20262;-65
2022/10/02 03:12:34;;;;;;;0.00;0.00;;;13.50;99.90;;;;;;5050001;28;20205;-65
2022/10/02 03:15:23;;;;;;;0.00;0.00;;;13.50;99.90;;;;;;5031407;28;20350;-65
2022/10/02 03:17:58;;;;;;;0.00;0.00;;;13.50;99.90;;;;;;5040222;28;20212;-65
2022/10/02 03:20:32;;;;;;;0.03;0.03;;;13.50;99.90;;;;;;5050087;28;20180;-65
2022/10/02 03:23:14;;;;;;;0.00;0.00;;;13.50;99.90;;;;;;5046832;28;20181;-65
2022/10/02 03:26:12;;;;;;;0.00;0.00;;;13.50;99.90;;;;;;5041439;28;20248;-66
2022/10/02 03:28:50;;;;;;;0.00;0.00;;;13.60;99.90;;;;;;5011622;28;20249;-66
2022/10/02 03:31:19;;;;;;;0.00;0.00;;;13.50;99.90;;;;;;5036382;28;20181;-65
2022/10/02 03:33:46;;;;;;;0.00;0.00;;;13.50;99.90;;;;;;5044598;28;20189;-66
2022/10/02 03:36:15;;;;;;;0.00;0.00;;;13.50;99.90;;;;;;5042962;28;20271;-65
2022/10/02 03:38:41;;;;;;;0.00;0.00;;;13.50;99.90;;;;;;5034178;28;20186;-66
2022/10/02 03:41:07;;;;;;;0.00;0.00;;;13.60;99.90;;;;;;5030198;28;20182;-65
2022/10/02 03:43:32;;;;;;;0.00;0.00;;;13.50;99.90;;;;;;5048098;28;20317;-65
2022/10/02 03:45:58;;;;;;;0.00;0.00;;;13.60;99.90;;;;;;5039811;28;20209;-65
2022/10/02 03:48:24;;;;;;;0.00;0.00;;;13.60;99.90;;;;;;5043796;28;20186;-65
2022/10/02 03:50:49;;;;;;;0.00;0.00;;;13.50;99.90;;;;;;5039393;28;20197;-65
2022/10/02 03:53:18;;;;;;;0.00;0.00;;;13.60;99.90;;;;;;5049833;28;20549;-65
2022/10/02 03:55:54;;;;;;;0.00;0.00;;;13.60;99.90;;;;;;5035821;28;20214;-65
2022/10/02 03:58:20;;;;;;;0.00;0.00;;;13.50;99.90;;;;;;5045111;28;20208;-65
2022/10/02 04:00:55;;;;;;;0.00;0.00;;;13.50;99.90;;;;;;5037014;28;20189;-64
2022/10/02 04:03:33;;;;;;;0.00;0.00;;;13.50;99.90;;;;;;5050206;28;20299;-64
2022/10/02 04:06:04;;;;;;;0.00;0.00;;;13.50;99.90;;;;;;5040174;28;20178;-65
2022/10/02 04:08:38;;;;;;;0.00;0.00;;;13.50;99.90;;;;;;5041512;28;20193;-65
2022/10/02 04:11:49;;;;;;;0.00;0.00;;;13.50;99.90;;;;;;5045754;28;20207;-64
2022/10/02 04:14:23;;;;;;;0.00;0.00;;;13.50;99.90;;;;;;5013337;28;20185;-65
2022/10/02 04:16:57;;;;;;;0.20;0.20;;;13.50;99.90;;;;;;5017871;28;20185;-65
2022/10/02 04:19:28;;;;;;;0.00;0.00;;;13.40;99.90;;;;;;5029956;28;20272;-65
2022/10/02 04:22:06;;;;;;;0.00;0.00;;;13.40;99.90;;;;;;5047891;28;20715;-65
2022/10/02 04:24:50;;;;;;;0.00;0.00;;;13.40;99.90;;;;;;5038670;28;20201;-65
2022/10/02 04:27:31;;;;;;;0.00;0.00;;;13.40;99.90;;;;;;5032197;28;20303;-64
2022/10/02 04:30:04;;;;;;;0.00;0.00;;;13.40;99.90;;;;;;5040934;28;20178;-64
2022/10/02 04:32:32;;;;;;;0.45;0.45;;;13.40;99.90;;;;;;5033898;28;20193;-64
2022/10/02 04:34:58;;;;;;;0.00;0.00;;;13.40;99.90;;;;;;5048344;28;20546;-64
2022/10/02 04:37:50;;;;;;;0.10;0.10;;;13.30;99.90;;;;;;5046948;28;20192;-65
2022/10/02 04:40:49;;;;;;;0.00;0.00;;;13.30;99.90;;;;;;5037433;28;20700;-64
2022/10/02 04:43:45;;;;;;;0.13;0.13;;;13.40;99.90;;;;;;5015541;28;20179;-65
2022/10/02 04:46:28;;;;;;;0.00;0.00;;;13.30;99.90;;;;;;5050443;28;20185;-65
2022/10/02 04:49:15;;;;;;;0.00;0.00;;;13.30;99.90;;;;;;5047987;28;20525;-65
2022/10/02 04:52:08;;;;;;;0.00;0.00;;;13.30;99.90;;;;;;5046967;28;20619;-65
2022/10/02 04:54:45;;;;;;;0.00;0.00;;;13.30;99.90;;;;;;5026566;28;20185;-65
2022/10/02 04:57:22;;;;;;;0.00;0.00;;;13.30;99.90;;;;;;5036354;28;20186;-65
2022/10/02 05:00:01;;;;;;;0.00;0.00;;;13.30;99.90;;;;;;5039475;28;20177;-64
2022/10/02 05:02:35;;;;;;;0.00;0.00;;;13.30;99.90;;;;;;5044841;28;20208;-64
2022/10/02 05:05:17;;;;;;;0.00;0.00;;;13.20;99.90;;;;;;5048663;28;20189;-65
2022/10/02 05:07:51;;;;;;;0.00;0.00;;;13.20;99.90;;;;;;5029730;28;20181;-65
2022/10/02 05:10:23;;;;;;;0.00;0.00;;;13.20;99.90;;;;;;5042156;28;20181;-65
2022/10/02 05:13:12;;;;;;;0.00;0.00;;;13.20;99.90;;;;;;5039593;28;20182;-65
2022/10/02 05:15:40;;;;;;;0.00;0.00;;;13.20;99.90;;;;;;5036005;28;20229;-65
2022/10/02 05:18:06;;;;;;;0.00;0.00;;;13.20;99.90;;;;;;5048690;28;20648;-65
2022/10/02 05:21:13;;;;;;;0.00;0.00;;;13.10;99.90;;;;;;5045546;28;20197;-64
2022/10/02 05:23:53;;;;;;;0.10;0.10;;;13.10;99.90;;;;;;5036942;28;20201;-64
2022/10/02 05:26:41;;;;;;;0.00;0.00;;;13.10;99.90;;;;;;5038963;28;20178;-64
2022/10/02 05:29:26;;;;;;;0.00;0.00;;;13.00;99.90;;;;;;5048155;28;20292;-64
2022/10/02 05:31:57;;;;;;;0.05;0.05;;;13.00;99.90;;;;;;5048638;28;20176;-64
2022/10/02 05:34:47;;;;;;;0.00;0.00;;;13.00;99.90;;;;;;5048750;28;20686;-65
2022/10/02 05:37:29;;;;;;;0.00;0.00;;;13.00;99.90;;;;;;5040279;28;20701;-64
2022/10/02 05:40:09;;;;;;;0.10;0.10;;;13.00;99.90;;;;;;5039472;28;20183;-64
2022/10/02 05:42:42;;;;;;;0.00;0.00;;;13.00;99.90;;;;;;5045743;28;20182;-65
2022/10/02 05:45:27;;;;;;;0.00;0.00;;;12.90;99.90;;;;;;5051727;28;20177;-64
2022/10/02 05:48:00;;;;;;;0.05;0.05;;;13.00;99.90;;;;;;5020182;28;20182;-65
2022/10/02 05:50:32;;;;;;;0.00;0.00;;;12.90;99.90;;;;;;5046995;28;20178;-65
2022/10/02 05:53:35;;;;;;;0.20;0.20;;;12.90;99.90;;;;;;5048990;28;20257;-65
2022/10/02 05:56:27;;;;;;;0.00;0.00;;;12.90;99.90;;;;;;5045030;28;20221;-65
2022/10/02 05:58:59;;;;;;;0.00;0.00;;;12.90;99.90;;;;;;5042969;28;20205;-65
2022/10/02 06:01:32;;;;;;;0.00;0.00;;;12.90;99.90;;;;;;5049607;28;20596;-65
2022/10/02 06:04:25;;;;;;;0.00;0.00;;;12.80;99.90;;;;;;5044800;28;20259;-65
2022/10/02 06:06:55;;;;;;;0.00;0.00;;;12.80;99.90;;;;;;5032012;28;20194;-64
2022/10/02 06:09:27;;;;;;;0.00;0.00;;;12.80;99.90;;;;;;5043124;28;20268;-64
2022/10/02 06:12:00;;;;;;;0.00;0.00;;;12.80;99.90;;;;;;5044021;28;20179;-64
2022/10/02 06:14:39;;;;;;;0.00;0.00;;;12.80;99.90;;;;;;5052382;28;20677;-64
2022/10/02 06:17:14;;;;;;;0.00;0.00;;;12.80;99.90;;;;;;5040956;28;20541;-64
2022/10/02 06:20:03;;;;;;;0.00;0.00;;;12.80;99.90;;;;;;5050811;28;20177;-65
2022/10/02 06:22:34;;;;;;;0.25;0.25;;;12.80;99.90;;;;;;5039570;28;20205;-64
2022/10/02 06:25:18;;;;;;;0.00;0.00;;;12.80;99.90;;;;;;5052287;28;20196;-65
2022/10/02 06:27:51;;;;;;;0.00;0.00;;;12.80;99.90;;;;;;5044200;28;20177;-65
2022/10/02 06:30:17;;;;;;;0.00;0.00;;;12.70;99.90;;;;;;5041215;28;20269;-65
2022/10/02 06:33:10;;;;;;;0.00;0.00;;;12.80;99.90;;;;;;5042627;28;20671;-65
2022/10/02 06:35:49;;;;;;;0.00;0.00;;;12.80;99.90;;;;;;5048300;28;20226;-64
2022/10/02 06:38:26;;;;;;;0.00;0.00;;;12.80;99.90;;;;;;5051590;28;20189;-65
2022/10/02 06:41:28;;;;;;;0.00;0.00;;;12.80;99.90;;;;;;5049231;28;20181;-64
2022/10/02 06:44:22;;;;;;;0.00;0.00;;;12.80;99.90;;;;;;5044932;28;20220;-64
2022/10/02 06:46:51;;;;;;;0.00;0.00;;;12.70;99.90;;;;;;5050353;28;20655;-64
2022/10/02 06:49:29;;;;;;;0.00;0.00;;;12.80;99.90;;;;;;5039430;28;20177;-64
2022/10/02 06:52:04;;;;;;;0.38;0.35;;;12.70;99.90;;;;;;5053624;28;20181;-64
2022/10/02 06:55:04;;;;;;;0.15;0.15;;;12.70;99.90;;;;;;5047760;28;20177;-64
2022/10/02 06:57:32;;;;;;;0.05;0.05;;;12.80;99.90;;;;;;5028824;28;20182;-64
2022/10/02 07:00:11;;;;;;;0.00;0.00;;;12.80;99.90;;;;;;5044578;28;20182;-64
2022/10/02 07:03:08;;;;;;;0.00;0.00;;;12.80;99.90;;;;;;5042347;28;20668;-64
2022/10/02 07:06:24;;;;;;;0.00;0.00;;;12.80;99.90;;;;;;5035497;28;20190;-64
2022/10/02 07:09:23;;;;;;;0.00;0.00;;;12.90;99.90;;;;;;5015697;28;20272;-64
2022/10/02 07:12:02;;;;;;;0.08;0.08;;;12.90;99.90;;;;;;5013401;28;20237;-63
2022/10/02 07:14:49;;;;;;;0.00;0.00;;;12.90;99.90;;;;;;5039385;28;20177;-64
2022/10/02 07:17:18;;;;;;;0.00;0.00;;;12.90;99.90;;;;;;5037338;28;20611;-63
2022/10/02 07:19:46;;;;;;;0.00;0.00;;;13.00;99.90;;;;;;5039968;28;20178;-64
2022/10/02 07:22:26;;;;;;;0.00;0.00;;;13.00;99.90;;;;;;5034553;28;20182;-62
2022/10/02 07:25:13;;;;;;;0.00;0.00;;;13.10;99.90;;;;;;5033206;28;20284;-62
2022/10/02 07:28:22;;;;;;;0.00;0.00;;;13.20;99.90;;;;;;5048627;28;20629;-62
2022/10/02 07:31:00;;;;;;;0.00;0.00;;;13.30;99.90;;;;;;5026248;28;20178;-62
2022/10/02 07:33:41;;;;;;;0.00;0.00;;;13.30;99.90;;;;;;5035564;28;20188;-62
2022/10/02 07:36:29;;;;;;;0.00;0.00;;;13.30;99.90;;;;;;5047395;28;20221;-64
2022/10/02 07:39:10;;;;;;;0.00;0.00;;;13.30;99.90;;;;;;5033757;28;20214;-62
2022/10/02 07:42:17;;;;;;;0.00;0.00;;;13.40;99.90;;;;;;5039251;28;20185;-63
2022/10/02 07:44:51;;;;;;;0.00;0.00;;;13.40;99.90;;;;;;5040748;28;20584;-64
2022/10/02 07:47:32;;;;;;;0.00;0.00;;;13.40;99.90;;;;;;5032366;28;21435;-63
2022/10/02 07:50:12;;;;;;;0.22;0.10;;;13.40;99.90;;;;;;5041933;28;20170;-69
2022/10/02 07:53:03;;;;;;;0.00;0.00;;;13.50;99.90;;;;;;5042004;28;20762;-63
2022/10/02 07:55:29;;;;;;;0.00;0.00;;;13.50;99.90;;;;;;5047969;28;20236;-63
2022/10/02 07:58:15;;;;;;;0.00;0.00;;;13.60;99.90;;;;;;5048659;28;20248;-63
2022/10/02 08:00:55;;;;;;;0.00;0.00;;;13.60;99.90;;;;;;5021863;28;20658;-63
2022/10/02 08:03:26;;;;;;;0.00;0.00;;;13.70;99.90;;;;;;5032017;28;20229;-63
2022/10/02 08:05:54;;;;;;;0.00;0.00;;;13.70;99.90;;;;;;5035795;28;20224;-63
2022/10/02 08:08:38;;;;;;;0.00;0.00;;;13.70;99.90;;;;;;5045073;28;20641;-63
2022/10/02 08:11:10;;;;;;;0.00;0.00;;;13.70;99.90;;;;;;5032323;28;20231;-63
2022/10/02 08:13:41;;;;;;;0.00;0.00;;;13.70;99.90;;;;;;5041950;28;20656;-63
2022/10/02 08:16:09;;;;;;;0.00;0.00;;;13.80;99.90;;;;;;5040165;28;20213;-63
2022/10/02 08:18:47;;;;;;;0.00;0.00;;;13.80;99.90;;;;;;5043352;28;20182;-64
2022/10/02 08:21:19;;;;;;;0.00;0.00;;;13.80;99.90;;;;;;5037305;28;20204;-63
2022/10/02 08:23:54;;;;;;;0.10;0.10;;;13.90;99.90;;;;;;5032599;28;20180;-64
2022/10/02 08:26:37;;;;;;;0.00;0.00;;;13.90;99.90;;;;;;5035689;28;20180;-63
2022/10/02 08:29:07;;;;;;;0.00;0.00;;;13.90;99.90;;;;;;5050038;28;20196;-63
2022/10/02 08:31:32;;;;;;;0.00;0.00;;;13.90;99.90;;;;;;5045408;28;20182;-63
2022/10/02 08:34:10;;;;;;;0.00;0.00;;;13.80;99.90;;;;;;5032981;28;20186;-63
2022/10/02 08:37:01;;;;;;;0.00;0.00;;;13.80;99.90;;;;;;5036137;28;20339;-63
2022/10/02 08:40:02;;;;;;;0.00;0.00;;;13.70;99.90;;;;;;5051781;28;20177;-63
2022/10/02 08:43:07;;;;;;;0.00;0.00;;;13.80;99.90;;;;;;5044013;28;20547;-63
2022/10/02 08:45:39;;;;;;;0.00;0.00;;;13.80;99.90;;;;;;5033391;28;20197;-63
2022/10/02 08:48:26;;;;;;;0.00;0.00;;;13.80;99.90;;;;;;5048150;28;20268;-63
2022/10/02 08:51:06;;;;;;;0.00;0.00;;;13.80;99.90;;;;;;5032996;28;20559;-63
2022/10/02 08:53:50;;;;;;;0.00;0.00;;;13.80;99.90;;;;;;5032784;28;20185;-63
2022/10/02 08:56:34;;;;;;;0.00;0.00;;;13.90;99.90;;;;;;5031456;28;20635;-64
2022/10/02 08:59:18;;;;;;;0.00;0.00;;;14.00;99.90;;;;;;5036658;28;20188;-63
2022/10/02 09:02:18;;;;;;;0.00;0.00;;;13.90;99.90;;;;;;5036038;28;20181;-63
2022/10/02 09:05:01;;;;;;;0.00;0.00;;;14.00;99.90;;;;;;5031412;28;20229;-63
2022/10/02 09:08:07;;;;;;;0.00;0.00;;;14.10;99.90;;;;;;5023719;28;20189;-63
2022/10/02 09:11:10;;;;;;;0.40;0.40;;;14.10;99.90;;;;;;5038039;28;20676;-63
2022/10/02 09:14:04;;;;;;;0.00;0.00;;;14.10;99.90;;;;;;5051432;28;20178;-63
2022/10/02 09:16:55;;;;;;;0.00;0.00;;;14.10;99.90;;;;;;5049161;28;20220;-63
2022/10/02 09:19:43;;;;;;;0.00;0.00;;;14.10;99.90;;;;;;5051444;28;20189;-63
2022/10/02 09:22:39;;;;;;;0.00;0.00;;;14.10;99.90;;;;;;5049940;28;20177;-64
2022/10/02 09:25:14;;;;;;;0.00;0.00;;;14.20;99.90;;;;;;5051175;28;20189;-63
2022/10/02 09:28:17;;;;;;;0.00;0.00;;;14.30;99.90;;;;;;5036443;28;20200;-63
2022/10/02 09:31:07;;;;;;;0.00;0.00;;;14.30;99.90;;;;;;5053385;28;20185;-64
2022/10/02 09:34:03;;;;;;;0.00;0.00;;;14.30;99.90;;;;;;5036843;28;20228;-63
2022/10/02 09:36:53;;;;;;;0.00;0.00;;;14.40;99.90;;;;;;5051095;28;20591;-63
2022/10/02 09:39:55;;;;;;;0.00;0.00;;;14.30;99.90;;;;;;5019586;28;20204;-63
2022/10/02 09:42:51;;;;;;;0.00;0.00;;;14.30;99.90;;;;;;5036926;28;20181;-64
2022/10/02 09:45:49;;;;;;;0.00;0.00;;;14.40;99.90;;;;;;5037657;28;20263;-63
2022/10/02 09:48:36;;;;;;;0.00;0.00;;;14.30;99.90;;;;;;5040359;28;20181;-63
2022/10/02 09:51:26;;;;;;;0.00;0.00;;;14.30;99.90;;;;;;5036076;28;20189;-64
2022/10/02 09:53:58;;;;;;;0.00;0.00;;;14.30;99.90;;;;;;5044457;28;20253;-64
2022/10/02 09:56:50;;;;;;;0.00;0.00;;;14.30;99.90;;;;;;5034459;28;20214;-63
2022/10/02 09:59:44;;;;;;;0.00;0.00;;;14.30;99.90;;;;;;5034381;28;20178;-63
2022/10/02 10:02:41;;;;;;;0.00;0.00;;;14.30;99.90;;;;;;5034305;28;20257;-63
2022/10/02 10:05:38;;;;;;;0.00;0.00;;;14.30;99.90;;;;;;5034385;28;20591;-63
2022/10/02 10:08:40;;;;;;;0.00;0.00;;;14.30;99.90;;;;;;5034243;28;20261;-63
2022/10/02 10:11:31;;;;;;;0.00;0.00;;;14.30;99.90;;;;;;5035155;28;20186;-63
2022/10/02 10:14:40;;;;;;;0.00;0.00;;;14.30;99.90;;;;;;5048831;28;20771;-64
2022/10/02 10:17:29;;;;;;;0.00;0.00;;;14.40;99.90;;;;;;5039440;28;20193;-64
2022/10/02 10:20:16;;;;;;;0.05;0.05;;;14.50;99.90;;;;;;5044733;28;20231;-63
2022/10/02 10:22:51;;;;;;;0.00;0.00;;;14.50;99.90;;;;;;5034231;28;20288;-64
2022/10/02 10:25:49;;;;;;;0.00;0.00;;;14.60;99.90;;;;;;5045315;28;20261;-64
2022/10/02 10:28:23;;;;;;;0.00;0.00;;;14.70;99.90;;;;;;5044166;28;20189;-64
2022/10/02 10:30:57;;;;;;;0.00;0.00;;;14.70;99.90;;;;;;5052272;28;20199;-64
2022/10/02 10:33:42;;;;;;;0.00;0.00;;;14.70;99.90;;;;;;5047198;28;20231;-63
2022/10/02 10:40:13;;;;;;;0.00;0.00;;;14.60;99.90;;;;;;5044825;28;20209;-63
2022/10/02 10:42:57;;;;;;;0.00;0.00;;;14.60;99.90;;;;;;5048228;28;20185;-64
2022/10/02 10:45:50;;;;;;;0.00;0.00;;;14.60;99.90;;;;;;5045724;28;20201;-64
2022/10/02 10:48:33;;;;;;;0.15;0.15;;;14.50;99.90;;;;;;5034747;28;20190;-64
2022/10/02 10:51:18;;;;;;;0.00;0.00;;;14.50;99.90;;;;;;5021027;28;20177;-63
2022/10/02 10:54:14;;;;;;;0.00;0.00;;;14.40;99.90;;;;;;5044799;28;20178;-63
2022/10/02 10:56:45;;;;;;;0.10;0.10;;;14.40;99.90;;;;;;5047930;28;20213;-64
2022/10/02 10:59:41;;;;;;;0.00;0.00;;;14.30;99.90;;;;;;5032944;28;20178;-63
2022/10/02 11:02:53;;;;;;;0.00;0.00;;;14.30;99.90;;;;;;5044641;28;20181;-63
2022/10/02 11:05:46;;;;;;;0.00;0.00;;;14.40;99.90;;;;;;5029021;28;20189;-63
2022/10/02 11:08:24;;;;;;;0.00;0.00;;;14.50;99.90;;;;;;5033153;28;20185;-64
2022/10/02 11:11:21;;;;;;;0.00;0.00;;;14.70;99.90;;;;;;5033275;28;20619;-64
2022/10/02 11:14:06;;;;;;;0.00;0.00;;;14.80;99.90;;;;;;5038885;28;20184;-64
2022/10/02 11:16:56;;;;;;;0.00;0.00;;;14.80;99.90;;;;;;5035083;28;20743;-64
2022/10/02 11:19:46;;;;;;;0.00;0.00;;;14.80;99.90;;;;;;5015389;28;20171;-64
2022/10/02 11:22:33;;;;;;;0.00;0.00;;;14.90;99.90;;;;;;5043137;28;20174;-64
2022/10/02 11:25:10;;;;;;;0.00;0.00;;;14.90;99.90;;;;;;5034738;28;22003;-63
2022/10/02 11:27:49;;;;;;;0.00;0.00;;;15.00;99.90;;;;;;5039801;28;20199;-63
2022/10/02 11:30:21;;;;;;;0.00;0.00;;;15.10;99.90;;;;;;5049401;28;20181;-63
2022/10/02 11:33:02;;;;;;;0.10;0.10;;;15.30;99.90;;;;;;5045100;28;20185;-62
2022/10/02 11:35:36;;;;;;;0.93;0.85;;;15.50;99.90;;;;;;5037858;28;20566;-64
2022/10/02 11:38:25;;;;;;;0.35;0.35;;;15.70;99.90;;;;;;5033875;28;20238;-65
2022/10/02 11:41:16;;;;;;;0.00;0.00;;;16.00;99.90;;;;;;5036821;28;20272;-65
2022/10/02 11:44:09;;;;;;;0.00;0.00;;;16.20;99.90;;;;;;5024799;28;20182;-65
2022/10/02 11:46:45;;;;;;;0.00;0.00;;;16.30;99.90;;;;;;5032198;28;20186;-65
2022/10/02 11:49:39;;;;;;;0.00;0.00;;;16.30;99.90;;;;;;5032120;28;20178;-64
2022/10/02 11:52:20;;;;;;;0.00;0.00;;;16.30;99.90;;;;;;5032430;28;20182;-65
2022/10/02 11:54:57;;;;;;;0.00;0.00;;;16.20;99.90;;;;;;5035794;28;20177;-66
2022/10/02 11:57:58;;;;;;;0.00;0.00;;;16.20;99.90;;;;;;5039645;28;20232;-65
2022/10/02 12:00:33;;;;;;;0.03;0.03;;;16.20;99.90;;;;;;5041723;28;20185;-65
2022/10/02 12:03:04;;;;;;;0.00;0.00;;;16.20;99.90;;;;;;5012435;28;20234;-66
2022/10/02 12:06:06;;;;;;;0.00;0.00;;;16.10;99.90;;;;;;5028278;28;20186;-66
2022/10/02 12:09:01;;;;;;;0.00;0.00;;;16.10;99.90;;;;;;5035895;28;20537;-66
2022/10/02 12:11:32;;;;;;;0.00;0.00;;;16.10;99.90;;;;;;5038790;28;20182;-66
2022/10/02 12:14:18;;;;;;;0.00;0.00;;;16.10;99.90;;;;;;5042790;28;20226;-66
2022/10/02 12:17:07;;;;;;;0.00;0.00;;;16.10;99.90;;;;;;5043659;28;20292;-66
2022/10/02 12:29:00;;;;;;;0.00;0.00;;;15.90;99.90;;;;;;5032334;28;20589;-65
2022/10/02 12:31:51;;;;;;;0.00;0.00;;;15.80;99.90;;;;;;5038944;28;20189;-65
2022/10/02 12:34:41;;;;;;;0.00;0.00;;;15.80;99.90;;;;;;5038667;28;20173;-66
2022/10/02 12:37:18;;;;;;;0.00;0.00;;;15.80;99.90;;;;;;5023135;28;20189;-65
2022/10/02 12:40:08;;;;;;;0.00;0.00;;;15.90;99.90;;;;;;5047235;28;20208;-65
2022/10/02 12:43:02;;;;;;;0.00;0.00;;;15.90;99.90;;;;;;5039454;28;20189;-66
2022/10/02 12:45:53;;;;;;;0.00;0.00;;;15.90;99.90;;;;;;5033260;28;20231;-66
2022/10/02 12:48:53;;;;;;;0.00;0.00;;;15.80;99.90;;;;;;5044303;28;20208;-66
2022/10/02 12:51:55;;;;;;;0.00;0.00;;;15.80;99.90;;;;;;5051596;28;20178;-66
2022/10/02 12:54:40;;;;;;;0.00;0.00;;;15.70;99.90;;;;;;5012382;28;20205;-66
2022/10/02 12:57:54;;;;;;;0.00;0.00;;;15.60;99.90;;;;;;5037456;28;20732;-65
2022/10/02 13:00:38;;;;;;;0.00;0.00;;;15.60;99.90;;;;;;5048709;28;20274;-65
2022/10/02 13:03:04;;;;;;;0.08;0.08;;;15.70;99.90;;;;;;5042255;28;20308;-65
2022/10/02 13:05:50;;;;;;;0.00;0.00;;;15.80;99.90;;;;;;5035587;28;20270;-68
2022/10/02 13:08:21;;;;;;;0.10;0.10;;;15.90;99.90;;;;;;5035352;28;20186;-67
2022/10/02 13:11:05;;;;;;;0.00;0.00;;;16.00;99.90;;;;;;5035860;28;20277;-67
2022/10/02 13:13:48;;;;;;;0.10;0.10;;;16.20;99.90;;;;;;5051487;28;20503;-67
2022/10/02 13:16:55;;;;;;;0.00;0.00;;;16.40;99.90;;;;;;5053745;28;20243;-66
2022/10/02 13:19:39;;;;;;;0.00;0.00;;;16.60;99.90;;;;;;5052021;28;20262;-67
2022/10/02 13:22:21;;;;;;;0.03;0.03;;;16.80;99.90;;;;;;5055402;28;20209;-66
2022/10/02 13:25:05;;;;;;;0.17;0.17;;;16.90;99.90;;;;;;5052997;28;20535;-66
2022/10/02 13:27:55;;;;;;;0.00;0.00;;;17.00;99.90;;;;;;5035351;28;20288;-66
2022/10/02 13:30:22;;;;;;;0.00;0.00;;;17.00;99.90;;;;;;5035171;28;20190;-66
2022/10/02 13:33:21;;;;;;;0.30;0.15;;;16.90;99.90;;;;;;5035475;28;20186;-66
2022/10/02 13:35:58;;;;;;;0.00;0.00;;;16.70;99.90;;;;;;5033816;28;20576;-66
2022/10/02 13:38:38;;;;;;;0.00;0.00;;;16.50;99.90;;;;;;5042343;28;20185;-65
2022/10/02 13:41:12;;;;;;;0.00;0.00;;;16.30;99.90;;;;;;5036205;28;20182;-65
2022/10/02 13:43:50;;;;;;;0.00;0.00;;;16.10;99.90;;;;;;5034986;28;20178;-65
2022/10/02 13:46:37;;;;;;;0.10;0.10;;;15.90;99.90;;;;;;5034851;28;20260;-64
2022/10/02 13:49:16;;;;;;;1.05;0.70;;;15.80;99.90;;;;;;5047924;28;20185;-64
2022/10/02 13:51:54;;;;;;;0.00;0.00;;;15.70;99.90;;;;;;5054833;28;20825;-64
2022/10/02 13:54:23;;;;;;;0.00;0.00;;;15.60;99.90;;;;;;5051184;28;20518;-64
2022/10/02 13:56:54;;;;;;;0.00;0.00;;;15.50;99.90;;;;;;5054893;28;20219;-65
2022/10/02 13:59:39;;;;;;;0.00;0.00;;;15.40;99.90;;;;;;5052817;28;20565;-63
2022/10/02 14:02:37;;;;;;;0.00;0.00;;;15.30;99.90;;;;;;5040938;28;20174;-64
2022/10/02 14:05:09;;;;;;;0.10;0.10;;;15.20;99.90;;;;;;5034463;28;20558;-64
2022/10/02 14:07:57;;;;;;;0.57;0.17;;;15.20;99.90;;;;;;5038174;28;20264;-64
2022/10/02 14:10:52;;;;;;;0.00;0.00;;;15.10;99.90;;;;;;5051545;28;20675;-63
2022/10/02 14:13:32;;;;;;;0.00;0.00;;;15.10;99.90;;;;;;5052644;28;20257;-64
2022/10/02 14:16:38;;;;;;;0.00;0.00;;;15.20;99.90;;;;;;5051123;28;20213;-64